AirNav   ATP
 
 1313 users online  

3IN7 Chain-O-Lakes Airport
South Bend, Indiana, USA

GOING TO SOUTH BEND?


FAA INFORMATION EFFECTIVE 20 JULY 2017

Location

FAA Identifier: 3IN7
Lat/Long: 41-39-45.1680N / 086-21-15.0380W
41-39.752800N / 086-21.250633W
41.6625467 / -86.3541772
(estimated)
Elevation: 743 ft. / 226 m (estimated)
Variation: 02W (1985)
From city: 4 miles W of SOUTH BEND, IN
Time zone: UTC -4 (UTC -5 during Standard Time)
Zip code: 46619

Airport Operations

Airport use: Private use. Permission required prior to landing
Activation date: 11/1945
Control tower: no
ARTCC: CHICAGO CENTER
FSS: TERRE HAUTE FLIGHT SERVICE STATION
OR LOCAL CALL 236-8470.
Attendance: MAR-NOV DAWN-DUSK
Wind indicator: yes
Segmented circle: yes

Airport Communications

WX ASOS at SBN (3 nm NE): PHONE 574-251-2652
WX AWOS-3 at EKM (16 nm E): 124.475 (574-264-9002)
WX AWOS-3 at PPO (18 nm W): 119.825 (219-326-6916)

Nearby radio navigation aids

VOR radial/distance  VOR name  Freq  Var
GIJr194/6.6GIPPER VORTAC115.4000E
GSHr299/16.8GOSHEN VORTAC113.7000E
OXIr033/24.4KNOX VOR/DME115.6000E
ELXr200/30.7KEELER VOR/DME116.6000E

 
NDB name  Hdg/Dist  Freq  Var  ID
LA PORTE065/21.135603WIUL .. ..- .-..
CULVER004/26.839101WCPB -.-. .--. -...

Airport Services

Parking: hangars and tiedowns

Runway Information

Runway 15/33

Dimensions: 2100 x 125 ft. / 640 x 38 m
Surface: turf/sand, in fair condition
RUNWAY 15  RUNWAY 33
Traffic pattern: leftleft
Obstructions: 70 ft. trees, 110 ft. right of centerline
ALSO 15'ROAD, 15'TXLINE, 20-60'TREES ON CL FM 0-300'FM RWY END.
35 ft. trees, 60 ft. right of centerline
TALLEST TREE AT RWY END, OTHER TREES 10-20'ABV CL ELEV BOTH SIDES AT RWY-END.

Airport Ownership and Management from official FAA records

Ownership: Privately-owned
Owner: RICHARD E. SCHWEIZER
57239 PINE ROAD
SOUTH BEND, IN 46619
Phone 219-289-1362
Manager: RICHARD E. SCHWEIZER
57239 PINE ROAD
SOUTH BEND, IN 46619
Phone 219-289-1362

Airport Operational Statistics

Aircraft based on the field: 6
Single engine airplanes: 3
Ultralights: 3
    
Aircraft operations: avg 50/month *
83% local general aviation
17% transient general aviation
* for 12-month period ending 18 July 1984

Additional Remarks

RWY 15/33: HGRS LCTD WITHIN PRIM SFC EAST SIDE OF RWY.
ARPT LCTD WITHIN SBN ARPT TFC AREA. COORD INGRESS/EGRESS WITH SBN ATCT & APCH CTL.
122.900 AVBL.
ADDITIONAL CONTACT - RICHARD SCHWEIZER, JR. - 574-232-9371

Instrument Procedures

There are no published instrument procedures at 3IN7.

Some nearby airports with instrument procedures:

KSBN - South Bend International Airport (3 nm NE)
3TR - Jerry Tyler Memorial Airport (12 nm NE)
KEKM - Elkhart Municipal Airport (16 nm E)
C20 - Andrews University Airpark (17 nm N)
KPPO - La Porte Municipal Airport (18 nm W)
C65 - Plymouth Municipal Airport (18 nm S)
 
Loc | Ops | Rwys | IFR | FBO | Links
Com | Nav | Svcs | Stats | Notes

City of Findlay
 
Area around 3IN7 (Chain-O-Lakes Airport)
 
Road maps at: MapQuest Bing Google
 
Aerial photo
No photo
 
Sectional chart

 
Airport distance calculator
Flying to Chain-O-Lakes Airport? Find the distance to fly.

From to 3IN7

Sunrise and sunset
Times for 28-Jul-2017
 Local
(UTC-4)
 Zulu
(UTC)
Morning civil twilight06:0510:05
Sunrise06:3710:37
Sunset21:0701:07
Evening civil twilight21:3901:39

Current date and time
Zulu (UTC)  28-Jul-2017 13:58:26
Local (UTC-4)  28-Jul-2017 09:58:26
 
METAR
KSBN 
3nm NE 
281354Z 04010KT 10SM CLR 21/17 A2997 RMK AO2 SLP144 T02110172
KEKM 
16nm E 
281350Z 06010KT 10SM CLR 20/16 A2997 RMK AO2
KPPO 
18nm W 
281335Z AUTO 04008KT 10SM SCT100 21/18 A2997 RMK AO2 T02120177
TAF
KSBN 
3nm NE 
281120Z 2812/2912 05008KT P6SM BKN090 FM281700 03014G21KT P6SM SCT060 FM290000 03009KT P6SM SKC
NOTAMs
Click for the latest NOTAMs
NOTAMs are issued by the DoD/FAA and will open in a separate window not controlled by AirNav.

 

 
 

Would you like to see your business listed on this page?

 If your business provides an interesting product or service to pilots, flight crews, aircraft, or users of the Chain-O-Lakes Airport, you should consider listing it here.  To start the listing process, click on the button below
 
Add a business
 

Other Pages about Chain-O-Lakes Airport

Update a link
 
Copyright © AirNav, LLC. All rights reserved. Privacy Policy  Contact